Time;durP1;ratioP1;P1;durP2;ratioP2;P2;SDS_P1;SDS_P2;PMS_P1;PMS_P2;Temp;Humidity;BMP_temperature;BMP_pressure;BME280_temperature;BME280_humidity;BME280_pressure;Samples;Min_cycle;Max_cycle;Signal;HPM_P1;HPM_P2
2022/04/22 00:03:52;;;;;;;6.93;4.47;;;12.40;77.20;;;;;;10904424;32;20023;-73
2022/04/22 00:09:55;;;;;;;7.05;5.70;;;12.40;76.80;;;;;;10894978;32;20336;-73
2022/04/22 00:15:57;;;;;;;8.27;6.35;;;12.50;77.20;;;;;;10905525;32;20023;-73
2022/04/22 00:21:59;;;;;;;4.37;2.50;;;12.50;77.30;;;;;;10907896;32;20027;-72
2022/04/22 00:28:02;;;;;;;5.68;4.72;;;12.60;77.30;;;;;;10907712;32;20359;-73
2022/04/22 00:34:04;;;;;;;7.00;4.72;;;12.60;77.90;;;;;;10907435;32;20019;-73
2022/04/22 00:40:09;;;;;;;5.50;3.78;;;12.50;78.20;;;;;;10907191;32;20019;-72
2022/04/22 00:46:13;;;;;;;5.28;3.85;;;12.50;78.90;;;;;;10907079;32;20058;-72
2022/04/22 00:52:15;;;;;;;5.75;4.37;;;12.50;79.50;;;;;;10906744;32;20375;-73
2022/04/22 00:58:17;;;;;;;7.28;5.25;;;12.50;79.80;;;;;;10906774;32;20377;-73
2022/04/22 01:10:41;;;;;;;7.60;5.25;;;12.40;80.30;;;;;;10906042;32;20403;-73
2022/04/22 01:16:43;;;;;;;9.40;6.47;;;12.30;80.60;;;;;;10934331;27;20065;-73
2022/04/22 01:22:45;;;;;;;10.75;5.22;;;12.20;81.10;;;;;;10943571;32;20065;-73
2022/04/22 01:28:47;;;;;;;7.37;5.95;;;12.20;81.40;;;;;;10943295;32;20441;-74
2022/04/22 01:34:49;;;;;;;9.20;7.32;;;12.20;81.30;;;;;;10943037;32;20031;-74
2022/04/22 01:40:53;;;;;;;13.70;9.60;;;12.20;81.40;;;;;;10942838;32;20018;-74
2022/04/22 01:46:55;;;;;;;10.70;6.25;;;12.20;81.40;;;;;;10942569;32;20054;-74
2022/04/22 01:53:11;;;;;;;9.50;7.03;;;12.20;81.60;;;;;;10929020;32;20081;-73
2022/04/22 01:59:13;;;;;;;8.05;5.12;;;12.20;81.80;;;;;;10942418;32;20442;-74
2022/04/22 02:05:15;;;;;;;9.20;6.75;;;12.20;81.80;;;;;;10942344;32;20023;-73
2022/04/22 02:11:36;;;;;;;11.45;8.23;;;12.20;81.90;;;;;;10942184;32;20343;-74
2022/04/22 02:17:37;;;;;;;10.45;6.25;;;12.10;82.30;;;;;;10941876;32;20049;-72
2022/04/22 02:23:40;;;;;;;9.88;5.55;;;12.00;82.40;;;;;;10942199;32;20054;-72
2022/04/22 02:29:42;;;;;;;8.10;5.85;;;12.00;82.50;;;;;;10941977;32;20057;-72
2022/04/22 02:35:45;;;;;;;6.47;4.47;;;12.00;82.60;;;;;;10942354;32;20069;-72
2022/04/22 02:48:07;;;;;;;7.60;5.37;;;12.00;82.40;;;;;;10941830;32;20054;-72
2022/04/22 02:54:09;;;;;;;7.50;5.40;;;12.00;82.30;;;;;;10941720;32;20035;-73
2022/04/22 03:00:13;;;;;;;6.85;4.68;;;12.00;82.60;;;;;;10941959;32;20058;-72
2022/04/22 03:06:15;;;;;;;10.27;6.75;;;12.00;82.60;;;;;;10936967;32;20019;-72
2022/04/22 03:12:18;;;;;;;9.00;6.70;;;12.00;82.60;;;;;;10941272;32;20061;-72
2022/04/22 03:18:19;;;;;;;9.88;5.75;;;12.00;82.70;;;;;;10941214;32;20026;-72
2022/04/22 03:24:21;;;;;;;7.55;5.85;;;12.00;82.90;;;;;;10941437;32;20054;-72
2022/04/22 03:30:24;;;;;;;7.18;4.28;;;12.00;82.90;;;;;;10944208;32;20027;-72
2022/04/22 03:36:45;;;;;;;8.18;5.37;;;12.00;82.70;;;;;;10948082;32;20112;-72
2022/04/22 03:42:47;;;;;;;7.50;4.85;;;12.10;82.50;;;;;;10947839;32;20406;-72
2022/04/22 03:48:49;;;;;;;8.70;6.45;;;12.10;82.60;;;;;;10947555;32;20062;-73
2022/04/22 03:54:52;;;;;;;5.32;3.92;;;12.10;82.60;;;;;;10947401;32;20031;-72
2022/04/22 04:00:55;;;;;;;6.60;3.40;;;12.20;82.50;;;;;;10946864;32;20054;-72
2022/04/22 04:07:04;;;;;;;5.90;3.78;;;12.20;82.40;;;;;;10946060;32;20026;-72
2022/04/22 04:26:04;;;;;;;8.00;4.45;;;12.20;82.30;;;;;;10946321;32;20035;-73
2022/04/22 04:32:09;;;;;;;6.68;3.75;;;12.20;82.40;;;;;;10932378;32;20054;-72
2022/04/22 04:38:11;;;;;;;8.07;5.70;;;12.20;82.30;;;;;;10945634;32;20031;-73
2022/04/22 04:44:13;;;;;;;7.57;4.68;;;12.20;82.30;;;;;;10943925;32;20335;-73
2022/04/22 04:50:15;;;;;;;7.90;5.00;;;12.20;82.40;;;;;;10941030;32;20038;-73
2022/04/22 04:56:17;;;;;;;6.53;4.10;;;12.20;82.60;;;;;;10945094;32;20045;-72
2022/04/22 05:02:40;;;;;;;6.60;3.33;;;12.20;82.60;;;;;;10944628;32;20049;-73
2022/04/22 05:08:42;;;;;;;7.30;5.25;;;12.30;82.50;;;;;;10944412;32;20050;-73
2022/04/22 05:14:46;;;;;;;5.72;4.18;;;12.30;82.50;;;;;;10942178;32;20367;-73
2022/04/22 05:20:48;;;;;;;3.85;2.87;;;12.30;82.40;;;;;;10944076;32;20027;-73
2022/04/22 05:26:50;;;;;;;9.95;5.70;;;12.30;82.20;;;;;;10943873;32;20035;-73
2022/04/22 05:32:53;;;;;;;5.07;2.92;;;12.30;82.10;;;;;;10943176;32;20331;-73
2022/04/22 05:38:54;;;;;;;6.80;4.70;;;12.40;82.20;;;;;;10942755;32;20053;-72
2022/04/22 05:44:56;;;;;;;3.83;2.97;;;12.40;82.40;;;;;;10942903;32;20054;-73
2022/04/22 05:51:00;;;;;;;4.45;3.30;;;12.40;82.40;;;;;;10938393;32;20064;-73
2022/04/22 05:57:03;;;;;;;5.82;2.97;;;12.40;82.20;;;;;;10942796;32;20417;-74
2022/04/22 06:03:06;;;;;;;4.32;2.92;;;12.40;82.20;;;;;;10939525;32;20035;-73
2022/04/22 06:15:29;;;;;;;3.15;2.47;;;12.40;82.20;;;;;;10938812;32;20041;-74
2022/04/22 06:21:31;;;;;;;6.57;4.18;;;12.40;82.40;;;;;;10913076;32;20027;-74
2022/04/22 06:27:35;;;;;;;11.32;4.45;;;12.50;82.30;;;;;;10905739;32;20058;-73
2022/04/22 06:33:38;;;;;;;5.45;3.58;;;12.40;82.40;;;;;;10904101;32;20055;-75
2022/04/22 06:46:01;;;;;;;4.43;2.90;;;12.40;82.60;;;;;;10904091;32;20028;-73
2022/04/22 06:52:05;;;;;;;8.25;3.60;;;12.40;82.60;;;;;;10890954;32;20035;-75
2022/04/22 06:58:12;;;;;;;6.95;4.05;;;12.40;82.50;;;;;;10903856;32;20427;-75
2022/04/22 07:04:14;;;;;;;8.50;5.03;;;12.50;82.70;;;;;;10900902;32;20031;-75
2022/04/22 07:10:17;;;;;;;7.07;4.82;;;12.50;82.80;;;;;;10910377;32;20023;-73
2022/04/22 07:16:20;;;;;;;13.62;7.82;;;12.50;82.80;;;;;;10910421;32;20050;-74
2022/04/22 07:22:22;;;;;;;7.12;5.32;;;12.50;82.80;;;;;;10909504;32;20027;-73
2022/04/22 07:28:27;;;;;;;6.00;3.83;;;12.50;83.00;;;;;;10909802;32;20061;-73
2022/04/22 07:34:51;;;;;;;7.03;4.47;;;12.50;83.10;;;;;;10907178;32;20339;-73
2022/04/22 07:40:53;;;;;;;5.45;4.40;;;12.60;83.00;;;;;;10907232;32;20438;-74
2022/04/22 07:47:18;;;;;;;8.77;3.50;;;12.50;83.00;;;;;;10909526;32;20343;-73
2022/04/22 07:53:22;;;;;;;3.30;2.08;;;12.60;82.80;;;;;;10909085;32;20030;-73
2022/04/22 07:59:25;;;;;;;6.85;4.60;;;12.60;82.70;;;;;;10909195;32;20054;-74
2022/04/22 08:05:28;;;;;;;3.90;2.58;;;12.70;82.70;;;;;;10909170;32;20430;-74
2022/04/22 08:11:30;;;;;;;4.97;2.80;;;12.70;82.80;;;;;;10904641;32;20032;-74
2022/04/22 08:17:37;;;;;;;3.35;2.12;;;12.70;82.70;;;;;;10907639;32;20049;-75
2022/04/22 08:23:39;;;;;;;10.00;4.70;;;12.70;82.50;;;;;;10908341;32;20411;-75
2022/04/22 08:29:44;;;;;;;3.58;2.75;;;12.70;82.40;;;;;;10908047;32;20030;-75
2022/04/22 08:35:46;;;;;;;7.97;4.15;;;12.80;82.50;;;;;;10894643;32;20058;-74
2022/04/22 08:41:48;;;;;;;3.58;2.78;;;12.80;82.50;;;;;;10893689;32;20054;-74
2022/04/22 08:54:13;;;;;;;6.35;3.00;;;12.80;82.30;;;;;;10904139;32;20281;-74
2022/04/22 09:00:19;;;;;;;3.55;3.05;;;12.80;82.40;;;;;;10907019;32;20049;-75
2022/04/22 09:06:23;;;;;;;4.37;2.17;;;12.80;82.50;;;;;;10906828;32;20392;-73
2022/04/22 09:12:26;;;;;;;3.67;2.92;;;12.80;82.60;;;;;;10898773;32;243516;-72
2022/04/22 09:18:30;;;;;;;2.78;1.70;;;12.80;82.40;;;;;;10981883;27;20066;-73
2022/04/22 09:24:33;;;;;;;2.78;2.08;;;12.80;82.40;;;;;;10981188;32;20050;-74
2022/04/22 09:30:36;;;;;;;3.03;2.33;;;12.80;82.50;;;;;;10980265;32;20030;-72
2022/04/22 09:42:58;;;;;;;1.67;1.42;;;12.80;82.30;;;;;;10980662;32;20062;-73
2022/04/22 09:49:00;;;;;;;3.83;1.45;;;12.80;82.50;;;;;;10980507;32;20299;-73
2022/04/22 09:55:22;;;;;;;1.73;1.25;;;12.90;82.40;;;;;;10980216;32;20045;-72
2022/04/22 10:01:25;;;;;;;2.37;2.03;;;12.90;82.30;;;;;;10980245;32;20308;-73
2022/04/22 10:07:32;;;;;;;3.47;2.22;;;13.00;82.30;;;;;;10980409;32;20042;-73
2022/04/22 10:13:41;;;;;;;2.03;1.77;;;13.20;82.30;;;;;;10980233;32;20039;-73
2022/04/22 10:19:44;;;;;;;2.20;1.73;;;13.20;82.10;;;;;;10980451;32;20037;-73
2022/04/22 10:25:57;;;;;;;2.28;1.50;;;13.40;82.00;;;;;;10948494;32;20374;-73
2022/04/22 10:32:00;;;;;;;2.30;1.30;;;13.50;81.80;;;;;;10937269;32;20339;-73
2022/04/22 10:38:04;;;;;;;2.08;1.30;;;13.40;81.50;;;;;;10929272;32;20049;-73
2022/04/22 10:51:02;;;;;;;2.37;1.75;;;13.50;81.30;;;;;;10949051;32;20120;-72
2022/04/22 10:57:42;;;;;;;3.37;1.37;;;13.50;81.20;;;;;;10948443;32;20049;-71
2022/04/22 11:04:16;;;;;;;3.53;1.50;;;13.50;81.10;;;;;;10942182;32;20031;-72
2022/04/22 11:10:20;;;;;;;2.85;2.00;;;13.60;80.90;;;;;;10945088;32;20070;-71
2022/04/22 11:16:22;;;;;;;4.95;2.42;;;13.60;80.70;;;;;;10944745;32;20615;-70
2022/04/22 11:22:56;;;;;;;4.37;2.50;;;13.70;80.50;;;;;;10946087;32;20403;-70
2022/04/22 11:29:29;;;;;;;3.55;2.55;;;13.70;80.30;;;;;;10947438;32;20124;-69
2022/04/22 11:35:35;;;;;;;3.67;2.65;;;13.70;80.10;;;;;;10865332;32;20024;-70
2022/04/22 11:41:51;;;;;;;2.08;1.87;;;13.70;80.10;;;;;;10864320;32;20042;-71
2022/04/22 11:48:31;;;;;;;1.77;1.67;;;13.70;79.90;;;;;;10866498;32;20032;-69
2022/04/22 11:54:34;;;;;;;2.10;1.60;;;13.70;79.80;;;;;;10863248;32;20024;-72
2022/04/22 12:13:58;;;;;;;2.90;1.80;;;13.70;79.90;;;;;;10946161;32;20312;-72
2022/04/22 12:20:01;;;;;;;3.35;1.67;;;13.70;79.90;;;;;;10946088;32;20023;-74
2022/04/22 12:26:04;;;;;;;1.50;1.40;;;13.70;80.00;;;;;;10941941;32;20035;-73
2022/04/22 12:32:13;;;;;;;1.85;1.20;;;13.60;80.00;;;;;;10932072;32;20433;-73
2022/04/22 12:38:17;;;;;;;1.95;1.48;;;13.60;80.20;;;;;;10941082;32;20026;-74
2022/04/22 12:44:19;;;;;;;2.20;1.85;;;13.60;80.10;;;;;;10945044;32;20053;-74
2022/04/22 12:56:52;;;;;;;4.12;1.65;;;13.50;80.40;;;;;;10939988;32;20053;-73
2022/04/22 13:03:12;;;;;;;3.55;2.22;;;13.50;80.40;;;;;;10943995;32;20441;-73
2022/04/22 13:09:17;;;;;;;2.67;1.85;;;13.50;80.40;;;;;;10930121;32;20027;-74
2022/04/22 13:15:21;;;;;;;1.85;1.35;;;13.50;80.30;;;;;;10943480;32;20391;-73
2022/04/22 13:21:26;;;;;;;2.72;1.40;;;13.50;80.30;;;;;;10939338;32;20022;-73
2022/04/22 13:27:29;;;;;;;2.12;1.58;;;13.60;80.20;;;;;;10929539;32;20096;-69
2022/04/22 13:33:32;;;;;;;3.17;2.03;;;13.60;80.20;;;;;;10942637;32;20053;-70
2022/04/22 13:39:49;;;;;;;3.58;2.50;;;13.60;80.10;;;;;;10942590;32;20035;-75
2022/04/22 13:52:32;;;;;;;1.90;1.50;;;13.80;79.80;;;;;;10940900;32;20031;-74
2022/04/22 13:58:36;;;;;;;2.20;1.98;;;13.90;79.70;;;;;;10941927;32;20022;-72
2022/04/22 14:04:39;;;;;;;2.20;1.50;;;13.90;79.70;;;;;;10941992;32;20062;-75
2022/04/22 14:10:41;;;;;;;2.40;1.37;;;13.90;79.70;;;;;;10927381;32;20034;-74
2022/04/22 14:16:43;;;;;;;2.20;1.30;;;14.00;79.70;;;;;;10928099;32;20054;-74
2022/04/22 14:22:45;;;;;;;2.85;2.20;;;14.00;79.60;;;;;;10941400;32;20023;-74
2022/04/22 14:28:47;;;;;;;1.35;1.25;;;14.10;79.40;;;;;;10936756;32;20062;-75
2022/04/22 14:34:50;;;;;;;2.85;1.60;;;14.20;79.30;;;;;;10926035;32;20085;-74
2022/04/22 14:40:52;;;;;;;1.87;1.70;;;14.20;79.20;;;;;;10941308;32;20414;-74
2022/04/22 14:46:54;;;;;;;2.87;1.75;;;14.20;79.10;;;;;;10940874;32;20026;-75
2022/04/22 14:52:56;;;;;;;5.53;2.20;;;14.30;79.00;;;;;;10940930;32;20156;-75
2022/04/22 14:58:58;;;;;;;1.60;1.45;;;14.30;78.90;;;;;;10940679;32;20416;-70
2022/04/22 15:05:01;;;;;;;2.03;1.48;;;14.30;78.70;;;;;;10940616;32;20343;-70
2022/04/22 15:11:03;;;;;;;1.55;1.45;;;14.30;78.50;;;;;;10936898;32;20065;-70
2022/04/22 15:17:05;;;;;;;3.58;2.62;;;14.30;78.40;;;;;;10940083;32;20027;-70
2022/04/22 15:29:28;;;;;;;2.55;2.05;;;14.30;78.00;;;;;;10946026;32;20057;-70
2022/04/22 15:35:30;;;;;;;2.22;1.70;;;14.40;78.00;;;;;;10946339;32;20042;-70
2022/04/22 15:41:33;;;;;;;2.45;2.00;;;14.50;77.90;;;;;;10946095;32;20050;-70
2022/04/22 15:47:35;;;;;;;2.15;1.70;;;14.50;77.60;;;;;;10946133;32;20433;-70
2022/04/22 15:53:39;;;;;;;3.42;1.62;;;14.50;77.40;;;;;;10943085;32;20061;-70
2022/04/22 15:59:42;;;;;;;2.62;1.90;;;14.70;77.30;;;;;;10942486;32;20022;-70
2022/04/22 16:05:45;;;;;;;2.95;1.85;;;14.70;77.20;;;;;;10945383;32;20031;-71
2022/04/22 16:18:14;;;;;;;2.92;2.22;;;14.80;76.90;;;;;;10943834;32;20057;-70
2022/04/22 16:24:18;;;;;;;4.50;2.50;;;14.80;76.80;;;;;;10944233;32;20045;-70
2022/04/22 16:30:23;;;;;;;3.78;2.70;;;14.80;76.70;;;;;;10942260;32;20399;-70
2022/04/22 16:36:25;;;;;;;3.47;2.45;;;14.80;76.70;;;;;;10943976;32;20015;-69
2022/04/22 16:42:27;;;;;;;3.95;2.17;;;14.80;76.60;;;;;;10943961;32;20383;-70
2022/04/22 16:48:30;;;;;;;2.00;1.42;;;14.80;76.60;;;;;;10939664;32;20438;-70
2022/04/22 16:54:32;;;;;;;3.03;1.90;;;14.80;76.50;;;;;;10943582;32;20061;-73
2022/04/22 17:00:36;;;;;;;2.47;2.10;;;14.80;76.50;;;;;;10943942;32;20073;-73
2022/04/22 17:06:41;;;;;;;3.72;2.42;;;14.80;76.50;;;;;;10944148;32;20049;-75
2022/04/22 17:12:45;;;;;;;2.70;2.28;;;14.80;76.40;;;;;;10948273;27;20027;-73
2022/04/22 17:25:14;;;;;;;2.92;1.90;;;14.90;76.40;;;;;;10943943;32;20019;-73
2022/04/22 17:31:16;;;;;;;3.30;2.83;;;14.80;76.40;;;;;;10943599;32;20036;-73
2022/04/22 17:37:19;;;;;;;6.93;3.65;;;14.80;76.50;;;;;;10940902;32;20076;-73
2022/04/22 17:43:23;;;;;;;6.25;4.57;;;14.70;76.50;;;;;;10937681;32;20027;-70
2022/04/22 17:49:25;;;;;;;5.55;4.22;;;14.70;76.60;;;;;;10941736;32;20031;-70
2022/04/22 17:55:27;;;;;;;6.90;3.62;;;14.60;76.70;;;;;;10942194;32;20034;-70
2022/04/22 18:01:29;;;;;;;6.12;3.58;;;14.50;76.80;;;;;;10938937;32;20437;-73
2022/04/22 18:07:31;;;;;;;5.50;3.83;;;14.50;76.80;;;;;;10942117;32;20046;-74
2022/04/22 18:13:34;;;;;;;8.05;5.45;;;14.50;76.80;;;;;;10937459;32;20339;-73
2022/04/22 18:19:40;;;;;;;7.50;4.95;;;14.50;76.70;;;;;;10940662;32;20434;-74
2022/04/22 18:25:53;;;;;;;5.07;3.40;;;14.50;76.60;;;;;;10938036;32;20068;-70
2022/04/22 18:31:57;;;;;;;8.23;4.95;;;14.40;76.70;;;;;;10941068;32;20061;-70
2022/04/22 18:38:28;;;;;;;5.78;4.37;;;14.30;76.60;;;;;;10896675;32;20048;-75
2022/04/22 18:44:30;;;;;;;6.57;3.80;;;14.30;76.60;;;;;;10899955;32;20027;-74
2022/04/22 18:50:32;;;;;;;4.70;2.92;;;14.30;76.70;;;;;;10900622;32;20023;-74
2022/04/22 18:56:38;;;;;;;5.53;3.97;;;14.20;76.60;;;;;;10900839;32;20046;-74
2022/04/22 19:02:42;;;;;;;4.80;3.15;;;14.30;76.70;;;;;;10889398;32;20062;-74
2022/04/22 19:08:44;;;;;;;7.65;3.62;;;14.20;76.60;;;;;;10870804;32;20368;-75
2022/04/22 19:14:47;;;;;;;5.82;3.97;;;14.20;76.50;;;;;;10897225;32;20391;-74
2022/04/22 19:20:49;;;;;;;6.50;4.37;;;14.20;76.60;;;;;;10907675;32;20066;-74
2022/04/22 19:26:52;;;;;;;8.40;4.35;;;14.20;76.60;;;;;;10910870;32;20339;-74
2022/04/22 19:32:55;;;;;;;7.30;4.57;;;14.20;76.60;;;;;;10910378;32;20035;-74
2022/04/22 19:45:17;;;;;;;5.50;4.40;;;14.10;76.70;;;;;;10906608;32;20031;-74
2022/04/22 19:51:19;;;;;;;7.47;4.80;;;14.00;76.70;;;;;;10909032;32;20093;-70
2022/04/22 19:57:21;;;;;;;6.93;4.20;;;13.90;76.70;;;;;;10909284;32;20048;-73
2022/04/22 20:03:27;;;;;;;10.93;7.15;;;13.90;76.60;;;;;;10906592;32;20043;-74
2022/04/22 20:09:29;;;;;;;11.88;5.85;;;13.80;76.80;;;;;;10909241;32;20441;-74
2022/04/22 20:15:32;;;;;;;8.55;6.10;;;13.80;76.90;;;;;;10906481;32;20058;-73
2022/04/22 20:21:35;;;;;;;8.88;5.37;;;13.70;76.90;;;;;;10908081;32;20046;-74
2022/04/22 20:27:42;;;;;;;9.82;6.07;;;13.70;76.90;;;;;;10908731;32;20032;-74
2022/04/22 20:33:44;;;;;;;11.77;7.05;;;13.70;77.00;;;;;;10907599;32;20035;-74
2022/04/22 20:46:08;;;;;;;15.40;9.70;;;13.60;77.00;;;;;;10903846;32;20027;-74
2022/04/22 20:52:10;;;;;;;9.48;7.20;;;13.60;77.00;;;;;;10905901;32;20081;-74
2022/04/22 20:58:12;;;;;;;9.45;6.97;;;13.50;77.10;;;;;;10907661;32;20477;-73
2022/04/22 21:04:15;;;;;;;11.10;7.35;;;13.50;77.00;;;;;;10907124;32;20368;-74
2022/04/22 21:10:17;;;;;;;9.43;6.62;;;13.50;77.00;;;;;;10906945;32;20430;-74
2022/04/22 21:16:23;;;;;;;9.55;6.65;;;13.40;77.00;;;;;;10905986;32;20136;-74
2022/04/22 21:22:26;;;;;;;10.40;6.22;;;13.40;77.00;;;;;;10906845;32;20031;-73
2022/04/22 21:28:28;;;;;;;9.02;5.80;;;13.50;76.90;;;;;;10906446;32;20019;-74
2022/04/22 21:34:30;;;;;;;9.90;7.10;;;13.50;76.90;;;;;;10904920;32;20031;-74
2022/04/22 21:40:32;;;;;;;11.05;7.43;;;13.40;77.00;;;;;;10905826;32;20050;-74
2022/04/22 21:46:34;;;;;;;9.05;7.00;;;13.40;77.00;;;;;;10903288;32;20053;-74
2022/04/22 21:52:36;;;;;;;12.95;7.72;;;13.50;76.90;;;;;;10905807;32;20438;-74
2022/04/22 21:58:38;;;;;;;12.93;8.32;;;13.50;76.80;;;;;;10901791;32;20035;-74
2022/04/22 22:04:41;;;;;;;7.60;5.50;;;13.50;76.70;;;;;;10902196;32;20042;-74
2022/04/22 22:10:44;;;;;;;8.48;6.90;;;13.50;76.80;;;;;;10905058;32;20077;-73
2022/04/22 22:16:46;;;;;;;9.05;6.62;;;13.40;76.80;;;;;;10905064;32;20046;-74
2022/04/22 22:22:48;;;;;;;9.20;7.57;;;13.40;76.80;;;;;;10904918;32;20347;-74
2022/04/22 22:28:51;;;;;;;9.50;5.93;;;13.30;76.90;;;;;;10904769;32;20317;-74
2022/04/22 22:34:53;;;;;;;10.13;6.85;;;13.30;77.00;;;;;;10904147;32;20073;-74
2022/04/22 22:40:55;;;;;;;8.43;6.78;;;13.30;77.10;;;;;;10904527;32;20023;-74
2022/04/22 22:46:59;;;;;;;10.77;6.70;;;13.20;76.90;;;;;;10903486;32;20058;-74
2022/04/22 22:53:01;;;;;;;7.05;5.57;;;13.20;77.00;;;;;;10904347;32;20035;-74
2022/04/22 22:59:03;;;;;;;8.57;5.15;;;13.20;76.90;;;;;;10904351;32;20035;-74
2022/04/22 23:05:06;;;;;;;11.38;7.18;;;13.20;76.80;;;;;;10900045;32;20384;-74
2022/04/22 23:11:08;;;;;;;7.53;6.35;;;13.20;76.90;;;;;;10903577;32;20035;-74
2022/04/22 23:17:11;;;;;;;11.45;4.78;;;13.10;77.10;;;;;;10903510;32;20081;-74
2022/04/22 23:23:13;;;;;;;6.28;3.53;;;13.10;77.10;;;;;;10899502;32;20043;-74
2022/04/22 23:29:16;;;;;;;6.35;3.47;;;13.00;76.90;;;;;;10903846;32;20426;-74
2022/04/22 23:35:18;;;;;;;6.05;3.03;;;13.00;76.90;;;;;;10899160;32;20024;-74
2022/04/22 23:41:20;;;;;;;5.32;3.47;;;13.00;76.90;;;;;;10899180;32;20461;-74
2022/04/22 23:47:22;;;;;;;6.35;4.30;;;13.00;76.90;;;;;;10905749;32;20355;-75
2022/04/22 23:53:29;;;;;;;5.30;3.60;;;13.00;76.80;;;;;;10906621;32;20049;-74
2022/04/22 23:59:31;;;;;;;6.45;5.05;;;13.00;76.90;;;;;;10906093;32;20027;-74
